sensor_id;sensor_type;location;lat;lon;timestamp;P1;durP1;ratioP1;P2;durP2;ratioP2
80201;SDS011;69521;54.454;9.928;2024-02-26T00:02:04;24.38;;;9.73;;
80201;SDS011;69521;54.454;9.928;2024-02-26T00:04:29;24.55;;;10.13;;
80201;SDS011;69521;54.454;9.928;2024-02-26T00:06:55;30.20;;;11.50;;
80201;SDS011;69521;54.454;9.928;2024-02-26T00:09:21;27.70;;;11.60;;
80201;SDS011;69521;54.454;9.928;2024-02-26T00:11:46;24.60;;;10.43;;
80201;SDS011;69521;54.454;9.928;2024-02-26T00:14:11;22.20;;;9.60;;
80201;SDS011;69521;54.454;9.928;2024-02-26T00:16:39;20.33;;;9.00;;
80201;SDS011;69521;54.454;9.928;2024-02-26T00:19:10;21.17;;;10.15;;
80201;SDS011;69521;54.454;9.928;2024-02-26T00:21:35;20.50;;;9.00;;
80201;SDS011;69521;54.454;9.928;2024-02-26T00:24:00;19.47;;;8.73;;
80201;SDS011;69521;54.454;9.928;2024-02-26T00:26:26;19.70;;;8.57;;
80201;SDS011;69521;54.454;9.928;2024-02-26T00:28:51;21.23;;;9.18;;
80201;SDS011;69521;54.454;9.928;2024-02-26T00:31:16;21.45;;;8.73;;
80201;SDS011;69521;54.454;9.928;2024-02-26T00:33:42;20.08;;;9.10;;
80201;SDS011;69521;54.454;9.928;2024-02-26T00:36:07;17.73;;;8.43;;
80201;SDS011;69521;54.454;9.928;2024-02-26T00:38:32;20.52;;;8.75;;
80201;SDS011;69521;54.454;9.928;2024-02-26T00:40:58;17.88;;;8.32;;
80201;SDS011;69521;54.454;9.928;2024-02-26T00:43:23;23.42;;;9.82;;
80201;SDS011;69521;54.454;9.928;2024-02-26T00:45:49;20.47;;;8.97;;
80201;SDS011;69521;54.454;9.928;2024-02-26T00:48:14;23.67;;;9.27;;
80201;SDS011;69521;54.454;9.928;2024-02-26T00:50:40;19.10;;;7.90;;
80201;SDS011;69521;54.454;9.928;2024-02-26T00:53:05;19.85;;;9.07;;
80201;SDS011;69521;54.454;9.928;2024-02-26T00:55:30;23.77;;;9.27;;
80201;SDS011;69521;54.454;9.928;2024-02-26T00:57:56;23.30;;;8.98;;
80201;SDS011;69521;54.454;9.928;2024-02-26T01:00:21;23.77;;;9.33;;
80201;SDS011;69521;54.454;9.928;2024-02-26T01:02:46;20.73;;;8.45;;
80201;SDS011;69521;54.454;9.928;2024-02-26T01:05:12;19.65;;;8.10;;
80201;SDS011;69521;54.454;9.928;2024-02-26T01:07:38;19.42;;;8.48;;
80201;SDS011;69521;54.454;9.928;2024-02-26T01:10:04;25.35;;;9.57;;
80201;SDS011;69521;54.454;9.928;2024-02-26T01:12:31;18.23;;;8.27;;
80201;SDS011;69521;54.454;9.928;2024-02-26T01:14:57;21.90;;;8.68;;
80201;SDS011;69521;54.454;9.928;2024-02-26T01:17:22;19.45;;;7.75;;
80201;SDS011;69521;54.454;9.928;2024-02-26T01:19:47;22.13;;;8.33;;
80201;SDS011;69521;54.454;9.928;2024-02-26T01:22:13;22.90;;;8.13;;
80201;SDS011;69521;54.454;9.928;2024-02-26T01:24:38;23.20;;;8.77;;
80201;SDS011;69521;54.454;9.928;2024-02-26T01:27:03;19.95;;;9.23;;
80201;SDS011;69521;54.454;9.928;2024-02-26T01:29:29;22.67;;;9.55;;
80201;SDS011;69521;54.454;9.928;2024-02-26T01:31:54;26.30;;;9.17;;
80201;SDS011;69521;54.454;9.928;2024-02-26T01:34:20;28.15;;;10.20;;
80201;SDS011;69521;54.454;9.928;2024-02-26T01:36:45;23.23;;;9.52;;
80201;SDS011;69521;54.454;9.928;2024-02-26T01:39:11;111.55;;;9.75;;
80201;SDS011;69521;54.454;9.928;2024-02-26T01:41:37;58.22;;;8.35;;
80201;SDS011;69521;54.454;9.928;2024-02-26T01:44:03;32.65;;;8.35;;
80201;SDS011;69521;54.454;9.928;2024-02-26T01:46:29;159.02;;;10.23;;
80201;SDS011;69521;54.454;9.928;2024-02-26T01:48:56;36.03;;;6.93;;
80201;SDS011;69521;54.454;9.928;2024-02-26T01:51:22;63.65;;;7.75;;
80201;SDS011;69521;54.454;9.928;2024-02-26T01:53:48;30.33;;;6.85;;
80201;SDS011;69521;54.454;9.928;2024-02-26T01:56:13;31.08;;;6.43;;
80201;SDS011;69521;54.454;9.928;2024-02-26T01:58:42;34.35;;;6.18;;
80201;SDS011;69521;54.454;9.928;2024-02-26T02:01:08;15.20;;;6.13;;
80201;SDS011;69521;54.454;9.928;2024-02-26T02:03:33;13.75;;;6.00;;
80201;SDS011;69521;54.454;9.928;2024-02-26T02:05:58;23.08;;;6.60;;
80201;SDS011;69521;54.454;9.928;2024-02-26T02:08:24;32.15;;;5.15;;
80201;SDS011;69521;54.454;9.928;2024-02-26T02:10:50;50.47;;;8.15;;
80201;SDS011;69521;54.454;9.928;2024-02-26T02:13:15;23.20;;;7.05;;
80201;SDS011;69521;54.454;9.928;2024-02-26T02:15:41;25.65;;;7.30;;
80201;SDS011;69521;54.454;9.928;2024-02-26T02:18:06;22.55;;;5.90;;
80201;SDS011;69521;54.454;9.928;2024-02-26T02:20:32;36.38;;;7.53;;
80201;SDS011;69521;54.454;9.928;2024-02-26T02:23:02;14.63;;;6.25;;
80201;SDS011;69521;54.454;9.928;2024-02-26T02:25:27;16.42;;;5.93;;
80201;SDS011;69521;54.454;9.928;2024-02-26T02:27:53;40.25;;;6.85;;
80201;SDS011;69521;54.454;9.928;2024-02-26T02:30:24;52.65;;;6.55;;
80201;SDS011;69521;54.454;9.928;2024-02-26T02:32:52;20.25;;;5.82;;
80201;SDS011;69521;54.454;9.928;2024-02-26T02:35:18;10.98;;;5.47;;
80201;SDS011;69521;54.454;9.928;2024-02-26T02:37:43;13.07;;;5.55;;
80201;SDS011;69521;54.454;9.928;2024-02-26T02:40:09;45.30;;;7.00;;
80201;SDS011;69521;54.454;9.928;2024-02-26T02:42:34;27.60;;;6.68;;
80201;SDS011;69521;54.454;9.928;2024-02-26T02:45:00;59.50;;;7.88;;
80201;SDS011;69521;54.454;9.928;2024-02-26T02:47:25;25.30;;;6.32;;
80201;SDS011;69521;54.454;9.928;2024-02-26T02:49:50;22.43;;;6.70;;
80201;SDS011;69521;54.454;9.928;2024-02-26T02:52:15;17.20;;;5.55;;
80201;SDS011;69521;54.454;9.928;2024-02-26T02:54:41;15.48;;;5.90;;
80201;SDS011;69521;54.454;9.928;2024-02-26T02:57:07;20.63;;;6.10;;
80201;SDS011;69521;54.454;9.928;2024-02-26T02:59:33;25.08;;;5.53;;
80201;SDS011;69521;54.454;9.928;2024-02-26T03:02:00;23.63;;;7.50;;
80201;SDS011;69521;54.454;9.928;2024-02-26T03:04:25;17.07;;;6.57;;
80201;SDS011;69521;54.454;9.928;2024-02-26T03:06:50;17.92;;;6.97;;
80201;SDS011;69521;54.454;9.928;2024-02-26T03:09:15;13.27;;;6.33;;
80201;SDS011;69521;54.454;9.928;2024-02-26T03:11:41;14.33;;;6.20;;
80201;SDS011;69521;54.454;9.928;2024-02-26T03:14:06;12.77;;;6.00;;
80201;SDS011;69521;54.454;9.928;2024-02-26T03:16:31;19.37;;;7.77;;
80201;SDS011;69521;54.454;9.928;2024-02-26T03:18:57;20.90;;;8.00;;
80201;SDS011;69521;54.454;9.928;2024-02-26T03:21:23;18.27;;;6.38;;
80201;SDS011;69521;54.454;9.928;2024-02-26T03:23:49;20.67;;;7.47;;
80201;SDS011;69521;54.454;9.928;2024-02-26T03:26:15;20.57;;;6.53;;
80201;SDS011;69521;54.454;9.928;2024-02-26T03:28:40;19.77;;;6.85;;
80201;SDS011;69521;54.454;9.928;2024-02-26T03:31:06;17.13;;;6.85;;
80201;SDS011;69521;54.454;9.928;2024-02-26T03:33:31;17.98;;;7.28;;
80201;SDS011;69521;54.454;9.928;2024-02-26T03:35:56;23.35;;;6.28;;
80201;SDS011;69521;54.454;9.928;2024-02-26T03:38:21;13.67;;;5.80;;
80201;SDS011;69521;54.454;9.928;2024-02-26T03:40:47;12.93;;;6.10;;
80201;SDS011;69521;54.454;9.928;2024-02-26T03:43:12;17.25;;;6.15;;
80201;SDS011;69521;54.454;9.928;2024-02-26T03:45:38;14.43;;;6.65;;
80201;SDS011;69521;54.454;9.928;2024-02-26T03:48:03;42.10;;;6.93;;
80201;SDS011;69521;54.454;9.928;2024-02-26T03:50:29;18.10;;;5.70;;
80201;SDS011;69521;54.454;9.928;2024-02-26T03:52:54;33.65;;;6.72;;
80201;SDS011;69521;54.454;9.928;2024-02-26T03:55:20;11.95;;;6.68;;
80201;SDS011;69521;54.454;9.928;2024-02-26T03:57:50;15.98;;;6.28;;
80201;SDS011;69521;54.454;9.928;2024-02-26T04:00:16;15.82;;;7.18;;
80201;SDS011;69521;54.454;9.928;2024-02-26T04:02:41;12.77;;;5.75;;
80201;SDS011;69521;54.454;9.928;2024-02-26T04:05:09;15.10;;;6.17;;
80201;SDS011;69521;54.454;9.928;2024-02-26T04:07:35;29.08;;;6.60;;
80201;SDS011;69521;54.454;9.928;2024-02-26T04:10:00;16.08;;;5.68;;
80201;SDS011;69521;54.454;9.928;2024-02-26T04:12:28;14.10;;;6.50;;
80201;SDS011;69521;54.454;9.928;2024-02-26T04:14:54;18.88;;;5.88;;
80201;SDS011;69521;54.454;9.928;2024-02-26T04:17:19;15.43;;;7.43;;
80201;SDS011;69521;54.454;9.928;2024-02-26T04:19:44;28.38;;;8.38;;
80201;SDS011;69521;54.454;9.928;2024-02-26T04:22:10;22.05;;;9.07;;
80201;SDS011;69521;54.454;9.928;2024-02-26T04:24:36;23.00;;;8.13;;
80201;SDS011;69521;54.454;9.928;2024-02-26T04:27:01;18.15;;;7.90;;
80201;SDS011;69521;54.454;9.928;2024-02-26T04:29:26;15.23;;;7.13;;
80201;SDS011;69521;54.454;9.928;2024-02-26T04:31:52;15.90;;;6.55;;
80201;SDS011;69521;54.454;9.928;2024-02-26T04:34:17;17.02;;;7.28;;
80201;SDS011;69521;54.454;9.928;2024-02-26T04:36:42;18.35;;;7.10;;
80201;SDS011;69521;54.454;9.928;2024-02-26T04:39:08;16.08;;;6.60;;
80201;SDS011;69521;54.454;9.928;2024-02-26T04:41:35;20.08;;;7.70;;
80201;SDS011;69521;54.454;9.928;2024-02-26T04:44:00;17.38;;;7.45;;
80201;SDS011;69521;54.454;9.928;2024-02-26T04:46:26;17.45;;;6.78;;
80201;SDS011;69521;54.454;9.928;2024-02-26T04:48:53;14.65;;;5.90;;
80201;SDS011;69521;54.454;9.928;2024-02-26T04:51:18;18.23;;;7.85;;
80201;SDS011;69521;54.454;9.928;2024-02-26T04:53:44;22.33;;;7.20;;
80201;SDS011;69521;54.454;9.928;2024-02-26T04:56:09;56.93;;;8.67;;
80201;SDS011;69521;54.454;9.928;2024-02-26T04:58:34;25.20;;;7.60;;
80201;SDS011;69521;54.454;9.928;2024-02-26T05:00:59;17.53;;;7.67;;
80201;SDS011;69521;54.454;9.928;2024-02-26T05:03:25;16.03;;;7.83;;
80201;SDS011;69521;54.454;9.928;2024-02-26T05:05:50;17.27;;;7.30;;
80201;SDS011;69521;54.454;9.928;2024-02-26T05:08:15;15.93;;;7.77;;
80201;SDS011;69521;54.454;9.928;2024-02-26T05:10:40;26.27;;;8.57;;
80201;SDS011;69521;54.454;9.928;2024-02-26T05:13:09;21.23;;;7.95;;
80201;SDS011;69521;54.454;9.928;2024-02-26T05:15:35;86.32;;;11.30;;
80201;SDS011;69521;54.454;9.928;2024-02-26T05:18:00;29.58;;;8.60;;
80201;SDS011;69521;54.454;9.928;2024-02-26T05:20:26;28.27;;;8.07;;
80201;SDS011;69521;54.454;9.928;2024-02-26T05:22:51;24.20;;;9.50;;
80201;SDS011;69521;54.454;9.928;2024-02-26T05:25:17;15.30;;;7.10;;
80201;SDS011;69521;54.454;9.928;2024-02-26T05:27:43;21.38;;;8.57;;
80201;SDS011;69521;54.454;9.928;2024-02-26T05:30:08;21.25;;;7.65;;
80201;SDS011;69521;54.454;9.928;2024-02-26T05:32:34;17.98;;;8.57;;
80201;SDS011;69521;54.454;9.928;2024-02-26T05:35:00;19.15;;;8.05;;
80201;SDS011;69521;54.454;9.928;2024-02-26T05:37:25;28.40;;;7.97;;
80201;SDS011;69521;54.454;9.928;2024-02-26T05:39:51;16.85;;;7.15;;
80201;SDS011;69521;54.454;9.928;2024-02-26T05:42:17;18.42;;;7.50;;
80201;SDS011;69521;54.454;9.928;2024-02-26T05:44:42;19.15;;;8.50;;
80201;SDS011;69521;54.454;9.928;2024-02-26T05:47:07;23.92;;;8.88;;
80201;SDS011;69521;54.454;9.928;2024-02-26T05:49:33;21.13;;;8.93;;
80201;SDS011;69521;54.454;9.928;2024-02-26T05:51:58;23.50;;;10.02;;
80201;SDS011;69521;54.454;9.928;2024-02-26T05:54:24;93.60;;;12.95;;
80201;SDS011;69521;54.454;9.928;2024-02-26T05:56:49;44.60;;;8.97;;
80201;SDS011;69521;54.454;9.928;2024-02-26T05:59:14;27.20;;;8.60;;
80201;SDS011;69521;54.454;9.928;2024-02-26T06:01:40;34.80;;;9.02;;
80201;SDS011;69521;54.454;9.928;2024-02-26T06:04:06;23.30;;;8.43;;
80201;SDS011;69521;54.454;9.928;2024-02-26T06:06:31;48.35;;;9.15;;
80201;SDS011;69521;54.454;9.928;2024-02-26T06:08:57;47.97;;;9.23;;
80201;SDS011;69521;54.454;9.928;2024-02-26T06:11:24;27.10;;;6.57;;
80201;SDS011;69521;54.454;9.928;2024-02-26T06:13:49;37.42;;;7.47;;
80201;SDS011;69521;54.454;9.928;2024-02-26T06:16:15;40.90;;;7.53;;
80201;SDS011;69521;54.454;9.928;2024-02-26T06:18:40;22.48;;;6.53;;
80201;SDS011;69521;54.454;9.928;2024-02-26T06:21:09;31.65;;;7.00;;
80201;SDS011;69521;54.454;9.928;2024-02-26T06:23:35;17.00;;;7.03;;
80201;SDS011;69521;54.454;9.928;2024-02-26T06:26:01;33.05;;;7.43;;
80201;SDS011;69521;54.454;9.928;2024-02-26T06:28:26;30.52;;;7.43;;
80201;SDS011;69521;54.454;9.928;2024-02-26T06:30:52;19.08;;;6.35;;
80201;SDS011;69521;54.454;9.928;2024-02-26T06:33:18;19.23;;;6.40;;
80201;SDS011;69521;54.454;9.928;2024-02-26T06:35:43;15.55;;;6.22;;
80201;SDS011;69521;54.454;9.928;2024-02-26T06:38:09;32.72;;;6.32;;
80201;SDS011;69521;54.454;9.928;2024-02-26T06:40:36;15.55;;;6.10;;
80201;SDS011;69521;54.454;9.928;2024-02-26T06:43:02;26.98;;;6.82;;
80201;SDS011;69521;54.454;9.928;2024-02-26T06:45:27;18.90;;;5.97;;
80201;SDS011;69521;54.454;9.928;2024-02-26T06:47:52;15.43;;;5.27;;
80201;SDS011;69521;54.454;9.928;2024-02-26T06:50:17;16.65;;;5.82;;
80201;SDS011;69521;54.454;9.928;2024-02-26T06:52:44;18.15;;;4.85;;
80201;SDS011;69521;54.454;9.928;2024-02-26T06:55:10;13.13;;;5.32;;
80201;SDS011;69521;54.454;9.928;2024-02-26T06:57:36;19.45;;;5.28;;
80201;SDS011;69521;54.454;9.928;2024-02-26T07:00:01;28.50;;;5.50;;
80201;SDS011;69521;54.454;9.928;2024-02-26T07:02:28;35.00;;;5.45;;
80201;SDS011;69521;54.454;9.928;2024-02-26T07:04:54;28.23;;;5.33;;
80201;SDS011;69521;54.454;9.928;2024-02-26T07:07:21;17.38;;;4.70;;
80201;SDS011;69521;54.454;9.928;2024-02-26T07:09:47;32.03;;;5.90;;
80201;SDS011;69521;54.454;9.928;2024-02-26T07:12:13;32.20;;;5.07;;
80201;SDS011;69521;54.454;9.928;2024-02-26T07:14:39;33.88;;;5.78;;
80201;SDS011;69521;54.454;9.928;2024-02-26T07:17:04;19.98;;;5.05;;
80201;SDS011;69521;54.454;9.928;2024-02-26T07:19:29;23.60;;;4.97;;
80201;SDS011;69521;54.454;9.928;2024-02-26T07:21:55;26.33;;;5.25;;
80201;SDS011;69521;54.454;9.928;2024-02-26T07:24:20;24.05;;;4.97;;
80201;SDS011;69521;54.454;9.928;2024-02-26T07:26:46;39.30;;;5.03;;
80201;SDS011;69521;54.454;9.928;2024-02-26T07:29:11;21.40;;;6.65;;
80201;SDS011;69521;54.454;9.928;2024-02-26T07:31:37;22.27;;;7.32;;
80201;SDS011;69521;54.454;9.928;2024-02-26T07:34:02;16.17;;;5.10;;
80201;SDS011;69521;54.454;9.928;2024-02-26T07:36:27;28.92;;;6.00;;
80201;SDS011;69521;54.454;9.928;2024-02-26T07:38:53;32.92;;;5.85;;
80201;SDS011;69521;54.454;9.928;2024-02-26T07:41:19;22.63;;;5.22;;
80201;SDS011;69521;54.454;9.928;2024-02-26T07:43:45;33.35;;;5.60;;
80201;SDS011;69521;54.454;9.928;2024-02-26T07:46:13;31.57;;;5.27;;
80201;SDS011;69521;54.454;9.928;2024-02-26T07:48:38;36.00;;;6.43;;
80201;SDS011;69521;54.454;9.928;2024-02-26T07:51:04;32.38;;;6.47;;
80201;SDS011;69521;54.454;9.928;2024-02-26T07:53:29;36.45;;;5.75;;
80201;SDS011;69521;54.454;9.928;2024-02-26T07:55:55;25.95;;;6.20;;
80201;SDS011;69521;54.454;9.928;2024-02-26T07:58:21;23.67;;;6.60;;
80201;SDS011;69521;54.454;9.928;2024-02-26T08:00:48;31.50;;;7.85;;
80201;SDS011;69521;54.454;9.928;2024-02-26T08:03:14;18.60;;;6.78;;
80201;SDS011;69521;54.454;9.928;2024-02-26T08:05:40;22.75;;;6.25;;
80201;SDS011;69521;54.454;9.928;2024-02-26T08:08:07;26.83;;;5.53;;
80201;SDS011;69521;54.454;9.928;2024-02-26T08:10:33;22.85;;;5.90;;
80201;SDS011;69521;54.454;9.928;2024-02-26T08:12:58;17.13;;;5.57;;
80201;SDS011;69521;54.454;9.928;2024-02-26T08:15:30;16.20;;;5.97;;
80201;SDS011;69521;54.454;9.928;2024-02-26T08:17:56;31.95;;;6.22;;
80201;SDS011;69521;54.454;9.928;2024-02-26T08:20:21;14.07;;;5.68;;
80201;SDS011;69521;54.454;9.928;2024-02-26T08:22:47;33.75;;;6.55;;
80201;SDS011;69521;54.454;9.928;2024-02-26T08:25:12;17.97;;;6.30;;
80201;SDS011;69521;54.454;9.928;2024-02-26T08:27:37;25.38;;;4.90;;
80201;SDS011;69521;54.454;9.928;2024-02-26T08:30:03;33.38;;;6.32;;
80201;SDS011;69521;54.454;9.928;2024-02-26T08:32:29;18.38;;;5.00;;
80201;SDS011;69521;54.454;9.928;2024-02-26T08:34:54;12.88;;;4.38;;
80201;SDS011;69521;54.454;9.928;2024-02-26T08:37:19;16.73;;;5.20;;
80201;SDS011;69521;54.454;9.928;2024-02-26T08:39:45;20.42;;;5.53;;
80201;SDS011;69521;54.454;9.928;2024-02-26T08:42:11;12.02;;;5.13;;
80201;SDS011;69521;54.454;9.928;2024-02-26T08:44:36;36.33;;;6.32;;
80201;SDS011;69521;54.454;9.928;2024-02-26T08:47:01;70.30;;;7.15;;
80201;SDS011;69521;54.454;9.928;2024-02-26T08:49:27;18.90;;;6.18;;
80201;SDS011;69521;54.454;9.928;2024-02-26T08:51:52;35.00;;;6.40;;
80201;SDS011;69521;54.454;9.928;2024-02-26T08:54:18;29.63;;;6.65;;
80201;SDS011;69521;54.454;9.928;2024-02-26T08:56:43;17.95;;;6.28;;
80201;SDS011;69521;54.454;9.928;2024-02-26T08:59:09;25.87;;;7.17;;
80201;SDS011;69521;54.454;9.928;2024-02-26T09:01:34;40.88;;;7.32;;
80201;SDS011;69521;54.454;9.928;2024-02-26T09:03:59;14.43;;;5.50;;
80201;SDS011;69521;54.454;9.928;2024-02-26T09:06:25;30.90;;;6.72;;
80201;SDS011;69521;54.454;9.928;2024-02-26T09:08:50;16.30;;;6.00;;
80201;SDS011;69521;54.454;9.928;2024-02-26T09:11:15;16.98;;;6.47;;
80201;SDS011;69521;54.454;9.928;2024-02-26T09:13:41;14.15;;;6.28;;
80201;SDS011;69521;54.454;9.928;2024-02-26T09:16:07;18.38;;;6.32;;
80201;SDS011;69521;54.454;9.928;2024-02-26T09:18:32;24.08;;;6.90;;
80201;SDS011;69521;54.454;9.928;2024-02-26T09:20:58;25.23;;;6.50;;
80201;SDS011;69521;54.454;9.928;2024-02-26T09:23:23;12.23;;;4.97;;
80201;SDS011;69521;54.454;9.928;2024-02-26T09:25:48;18.45;;;5.80;;
80201;SDS011;69521;54.454;9.928;2024-02-26T09:28:14;19.08;;;6.10;;
80201;SDS011;69521;54.454;9.928;2024-02-26T09:30:42;23.08;;;6.70;;
80201;SDS011;69521;54.454;9.928;2024-02-26T09:33:07;22.50;;;6.15;;
80201;SDS011;69521;54.454;9.928;2024-02-26T09:35:33;10.65;;;5.43;;
80201;SDS011;69521;54.454;9.928;2024-02-26T09:37:58;16.08;;;5.60;;
80201;SDS011;69521;54.454;9.928;2024-02-26T09:40:24;12.70;;;5.87;;
80201;SDS011;69521;54.454;9.928;2024-02-26T09:42:49;14.25;;;6.35;;
80201;SDS011;69521;54.454;9.928;2024-02-26T09:45:21;19.80;;;6.90;;
80201;SDS011;69521;54.454;9.928;2024-02-26T09:47:47;13.43;;;5.80;;
80201;SDS011;69521;54.454;9.928;2024-02-26T09:50:14;24.92;;;7.80;;
80201;SDS011;69521;54.454;9.928;2024-02-26T09:52:42;12.15;;;5.72;;
80201;SDS011;69521;54.454;9.928;2024-02-26T09:55:08;14.07;;;6.43;;
80201;SDS011;69521;54.454;9.928;2024-02-26T09:57:35;12.70;;;6.05;;
80201;SDS011;69521;54.454;9.928;2024-02-26T10:00:02;9.43;;;5.20;;
80201;SDS011;69521;54.454;9.928;2024-02-26T10:02:30;13.48;;;6.32;;
80201;SDS011;69521;54.454;9.928;2024-02-26T10:04:57;11.40;;;5.78;;
80201;SDS011;69521;54.454;9.928;2024-02-26T10:07:26;10.90;;;6.13;;
80201;SDS011;69521;54.454;9.928;2024-02-26T10:09:55;14.45;;;6.03;;
80201;SDS011;69521;54.454;9.928;2024-02-26T10:12:20;17.77;;;6.78;;
80201;SDS011;69521;54.454;9.928;2024-02-26T10:14:46;14.07;;;7.10;;
80201;SDS011;69521;54.454;9.928;2024-02-26T10:17:12;14.80;;;7.07;;
80201;SDS011;69521;54.454;9.928;2024-02-26T10:19:37;12.32;;;6.10;;
80201;SDS011;69521;54.454;9.928;2024-02-26T10:22:03;16.83;;;7.78;;
80201;SDS011;69521;54.454;9.928;2024-02-26T10:24:29;14.38;;;7.05;;
80201;SDS011;69521;54.454;9.928;2024-02-26T10:26:55;14.50;;;7.57;;
80201;SDS011;69521;54.454;9.928;2024-02-26T10:29:22;14.25;;;7.30;;
80201;SDS011;69521;54.454;9.928;2024-02-26T10:31:52;18.42;;;7.88;;
80201;SDS011;69521;54.454;9.928;2024-02-26T10:34:19;14.50;;;7.10;;
80201;SDS011;69521;54.454;9.928;2024-02-26T10:36:45;16.35;;;7.93;;
80201;SDS011;69521;54.454;9.928;2024-02-26T10:39:11;14.32;;;7.20;;
80201;SDS011;69521;54.454;9.928;2024-02-26T10:41:37;18.77;;;8.55;;
80201;SDS011;69521;54.454;9.928;2024-02-26T10:44:03;15.77;;;7.72;;
80201;SDS011;69521;54.454;9.928;2024-02-26T10:46:29;13.88;;;6.72;;
80201;SDS011;69521;54.454;9.928;2024-02-26T10:48:54;12.55;;;6.47;;
80201;SDS011;69521;54.454;9.928;2024-02-26T10:51:27;12.60;;;6.93;;
80201;SDS011;69521;54.454;9.928;2024-02-26T10:53:57;11.57;;;6.28;;
80201;SDS011;69521;54.454;9.928;2024-02-26T10:56:25;11.18;;;6.10;;
80201;SDS011;69521;54.454;9.928;2024-02-26T10:58:55;10.10;;;5.47;;
80201;SDS011;69521;54.454;9.928;2024-02-26T11:01:20;11.65;;;6.72;;
80201;SDS011;69521;54.454;9.928;2024-02-26T11:03:53;14.23;;;6.43;;
80201;SDS011;69521;54.454;9.928;2024-02-26T11:06:19;11.75;;;6.35;;
80201;SDS011;69521;54.454;9.928;2024-02-26T11:08:49;11.13;;;5.68;;
80201;SDS011;69521;54.454;9.928;2024-02-26T11:11:16;12.25;;;6.43;;
80201;SDS011;69521;54.454;9.928;2024-02-26T11:13:42;10.15;;;5.43;;
80201;SDS011;69521;54.454;9.928;2024-02-26T11:16:13;11.40;;;5.93;;
80201;SDS011;69521;54.454;9.928;2024-02-26T11:18:39;11.05;;;5.25;;
80201;SDS011;69521;54.454;9.928;2024-02-26T11:21:06;9.52;;;5.68;;
80201;SDS011;69521;54.454;9.928;2024-02-26T11:23:33;7.80;;;4.68;;
80201;SDS011;69521;54.454;9.928;2024-02-26T11:26:01;7.93;;;4.43;;
80201;SDS011;69521;54.454;9.928;2024-02-26T11:28:29;9.45;;;5.45;;
80201;SDS011;69521;54.454;9.928;2024-02-26T11:30:57;7.30;;;4.30;;
80201;SDS011;69521;54.454;9.928;2024-02-26T11:33:25;8.00;;;4.90;;
80201;SDS011;69521;54.454;9.928;2024-02-26T11:35:51;9.38;;;4.82;;
80201;SDS011;69521;54.454;9.928;2024-02-26T11:38:17;8.63;;;5.40;;
80201;SDS011;69521;54.454;9.928;2024-02-26T11:40:46;8.70;;;5.68;;
80201;SDS011;69521;54.454;9.928;2024-02-26T11:43:12;8.43;;;5.00;;
80201;SDS011;69521;54.454;9.928;2024-02-26T11:48:16;8.15;;;4.43;;
80201;SDS011;69521;54.454;9.928;2024-02-26T11:53:22;8.48;;;5.30;;
80201;SDS011;69521;54.454;9.928;2024-02-26T11:58:44;9.25;;;5.22;;
80201;SDS011;69521;54.454;9.928;2024-02-26T12:04:00;8.60;;;5.13;;
80201;SDS011;69521;54.454;9.928;2024-02-26T12:06:27;8.55;;;5.03;;
80201;SDS011;69521;54.454;9.928;2024-02-26T12:08:53;7.75;;;4.10;;
80201;SDS011;69521;54.454;9.928;2024-02-26T12:11:20;10.43;;;4.78;;
80201;SDS011;69521;54.454;9.928;2024-02-26T12:13:47;8.73;;;5.28;;
80201;SDS011;69521;54.454;9.928;2024-02-26T12:16:34;6.50;;;4.20;;
80201;SDS011;69521;54.454;9.928;2024-02-26T12:19:03;7.30;;;4.45;;
80201;SDS011;69521;54.454;9.928;2024-02-26T12:21:30;7.40;;;4.53;;
80201;SDS011;69521;54.454;9.928;2024-02-26T12:23:55;10.43;;;5.25;;
80201;SDS011;69521;54.454;9.928;2024-02-26T12:26:21;9.47;;;5.30;;
80201;SDS011;69521;54.454;9.928;2024-02-26T12:28:46;7.13;;;4.47;;
80201;SDS011;69521;54.454;9.928;2024-02-26T12:31:12;8.05;;;4.80;;
80201;SDS011;69521;54.454;9.928;2024-02-26T12:33:37;8.25;;;4.55;;
80201;SDS011;69521;54.454;9.928;2024-02-26T12:36:03;10.32;;;5.60;;
80201;SDS011;69521;54.454;9.928;2024-02-26T12:38:28;10.77;;;5.88;;
80201;SDS011;69521;54.454;9.928;2024-02-26T12:40:55;8.27;;;5.15;;
80201;SDS011;69521;54.454;9.928;2024-02-26T12:43:20;8.90;;;5.40;;
80201;SDS011;69521;54.454;9.928;2024-02-26T12:45:46;9.00;;;5.40;;
80201;SDS011;69521;54.454;9.928;2024-02-26T12:48:12;6.78;;;4.07;;
80201;SDS011;69521;54.454;9.928;2024-02-26T12:50:37;6.82;;;4.10;;
80201;SDS011;69521;54.454;9.928;2024-02-26T12:53:03;7.60;;;4.33;;
80201;SDS011;69521;54.454;9.928;2024-02-26T12:55:28;5.90;;;3.67;;
80201;SDS011;69521;54.454;9.928;2024-02-26T12:57:56;6.80;;;3.85;;
80201;SDS011;69521;54.454;9.928;2024-02-26T13:00:22;7.90;;;4.07;;
80201;SDS011;69521;54.454;9.928;2024-02-26T13:02:50;5.97;;;3.67;;
80201;SDS011;69521;54.454;9.928;2024-02-26T13:05:15;6.25;;;4.05;;
80201;SDS011;69521;54.454;9.928;2024-02-26T13:07:45;9.77;;;4.10;;
80201;SDS011;69521;54.454;9.928;2024-02-26T13:10:15;6.25;;;3.72;;
80201;SDS011;69521;54.454;9.928;2024-02-26T13:12:45;6.53;;;3.83;;
80201;SDS011;69521;54.454;9.928;2024-02-26T13:15:15;6.40;;;4.07;;
80201;SDS011;69521;54.454;9.928;2024-02-26T13:17:42;6.90;;;4.07;;
80201;SDS011;69521;54.454;9.928;2024-02-26T13:20:08;6.88;;;4.00;;
80201;SDS011;69521;54.454;9.928;2024-02-26T13:22:37;7.50;;;3.97;;
80201;SDS011;69521;54.454;9.928;2024-02-26T13:25:03;6.22;;;4.07;;
80201;SDS011;69521;54.454;9.928;2024-02-26T13:27:29;7.50;;;4.60;;
80201;SDS011;69521;54.454;9.928;2024-02-26T13:32:32;8.55;;;4.50;;
80201;SDS011;69521;54.454;9.928;2024-02-26T13:35:04;9.05;;;5.13;;
80201;SDS011;69521;54.454;9.928;2024-02-26T13:37:39;10.30;;;5.13;;
80201;SDS011;69521;54.454;9.928;2024-02-26T13:40:09;8.88;;;5.32;;
80201;SDS011;69521;54.454;9.928;2024-02-26T13:42:35;8.02;;;4.28;;
80201;SDS011;69521;54.454;9.928;2024-02-26T13:45:02;9.20;;;4.93;;
80201;SDS011;69521;54.454;9.928;2024-02-26T13:47:30;8.57;;;4.43;;
80201;SDS011;69521;54.454;9.928;2024-02-26T13:49:56;6.35;;;4.00;;
80201;SDS011;69521;54.454;9.928;2024-02-26T13:52:22;6.75;;;4.30;;
80201;SDS011;69521;54.454;9.928;2024-02-26T13:54:47;6.00;;;3.97;;
80201;SDS011;69521;54.454;9.928;2024-02-26T13:57:13;7.07;;;4.15;;
80201;SDS011;69521;54.454;9.928;2024-02-26T13:59:38;6.78;;;4.10;;
80201;SDS011;69521;54.454;9.928;2024-02-26T14:02:07;10.27;;;4.43;;
80201;SDS011;69521;54.454;9.928;2024-02-26T14:04:33;8.50;;;4.55;;
80201;SDS011;69521;54.454;9.928;2024-02-26T14:06:58;6.57;;;4.10;;
80201;SDS011;69521;54.454;9.928;2024-02-26T14:09:24;8.40;;;4.82;;
80201;SDS011;69521;54.454;9.928;2024-02-26T14:11:49;7.90;;;5.18;;
80201;SDS011;69521;54.454;9.928;2024-02-26T14:14:14;8.70;;;4.55;;
80201;SDS011;69521;54.454;9.928;2024-02-26T14:16:40;9.25;;;5.30;;
80201;SDS011;69521;54.454;9.928;2024-02-26T14:19:05;8.70;;;5.27;;
80201;SDS011;69521;54.454;9.928;2024-02-26T14:21:30;9.40;;;5.87;;
80201;SDS011;69521;54.454;9.928;2024-02-26T14:23:56;9.10;;;5.53;;
80201;SDS011;69521;54.454;9.928;2024-02-26T14:26:22;9.60;;;5.47;;
80201;SDS011;69521;54.454;9.928;2024-02-26T14:28:48;9.25;;;5.63;;
80201;SDS011;69521;54.454;9.928;2024-02-26T14:31:16;10.32;;;6.15;;
80201;SDS011;69521;54.454;9.928;2024-02-26T14:33:45;9.45;;;6.18;;
80201;SDS011;69521;54.454;9.928;2024-02-26T14:36:10;10.27;;;6.25;;
80201;SDS011;69521;54.454;9.928;2024-02-26T14:38:36;11.70;;;6.13;;
80201;SDS011;69521;54.454;9.928;2024-02-26T14:41:02;9.63;;;5.68;;
80201;SDS011;69521;54.454;9.928;2024-02-26T14:43:28;8.80;;;5.40;;